sensor_id;sensor_type;location;lat;lon;timestamp;temperature;humidity
19031;DHT22;9648;51.130;13.978;2023-05-16T00:00:02;11.30;99.90
19031;DHT22;9648;51.130;13.978;2023-05-16T00:02:31;11.30;99.90
19031;DHT22;9648;51.130;13.978;2023-05-16T00:04:59;11.30;99.90
19031;DHT22;9648;51.130;13.978;2023-05-16T00:07:26;11.30;99.90
19031;DHT22;9648;51.130;13.978;2023-05-16T00:09:53;11.20;99.90
19031;DHT22;9648;51.130;13.978;2023-05-16T00:12:20;11.10;99.90
19031;DHT22;9648;51.130;13.978;2023-05-16T00:14:47;11.10;99.90
19031;DHT22;9648;51.130;13.978;2023-05-16T00:17:14;11.00;99.90
19031;DHT22;9648;51.130;13.978;2023-05-16T00:19:42;10.90;99.90
19031;DHT22;9648;51.130;13.978;2023-05-16T00:22:10;10.80;99.90
19031;DHT22;9648;51.130;13.978;2023-05-16T00:24:40;10.80;99.90
19031;DHT22;9648;51.130;13.978;2023-05-16T00:27:07;10.80;99.90
19031;DHT22;9648;51.130;13.978;2023-05-16T00:29:34;10.70;99.90
19031;DHT22;9648;51.130;13.978;2023-05-16T00:32:01;10.70;99.90
19031;DHT22;9648;51.130;13.978;2023-05-16T00:34:28;10.70;99.90
19031;DHT22;9648;51.130;13.978;2023-05-16T00:36:54;10.70;99.90
19031;DHT22;9648;51.130;13.978;2023-05-16T00:39:23;10.60;99.90
19031;DHT22;9648;51.130;13.978;2023-05-16T00:41:50;10.60;99.90
19031;DHT22;9648;51.130;13.978;2023-05-16T00:44:17;10.50;99.90
19031;DHT22;9648;51.130;13.978;2023-05-16T00:46:44;10.50;99.90
19031;DHT22;9648;51.130;13.978;2023-05-16T00:49:11;10.40;99.90
19031;DHT22;9648;51.130;13.978;2023-05-16T00:51:38;10.40;99.90
19031;DHT22;9648;51.130;13.978;2023-05-16T00:54:05;10.30;99.90
19031;DHT22;9648;51.130;13.978;2023-05-16T00:56:34;10.20;99.90
19031;DHT22;9648;51.130;13.978;2023-05-16T00:59:01;10.20;99.90
19031;DHT22;9648;51.130;13.978;2023-05-16T01:01:28;10.20;99.90
19031;DHT22;9648;51.130;13.978;2023-05-16T01:03:56;10.10;99.90
19031;DHT22;9648;51.130;13.978;2023-05-16T01:06:23;10.10;99.90
19031;DHT22;9648;51.130;13.978;2023-05-16T01:08:50;10.10;99.90
19031;DHT22;9648;51.130;13.978;2023-05-16T01:11:23;10.10;99.90
19031;DHT22;9648;51.130;13.978;2023-05-16T01:13:59;10.10;99.90
19031;DHT22;9648;51.130;13.978;2023-05-16T01:16:34;10.10;99.90
19031;DHT22;9648;51.130;13.978;2023-05-16T01:19:09;10.10;99.90
19031;DHT22;9648;51.130;13.978;2023-05-16T01:21:46;10.10;99.90
19031;DHT22;9648;51.130;13.978;2023-05-16T01:24:22;10.10;99.90
19031;DHT22;9648;51.130;13.978;2023-05-16T01:26:51;10.00;99.90
19031;DHT22;9648;51.130;13.978;2023-05-16T01:29:18;10.00;99.90
19031;DHT22;9648;51.130;13.978;2023-05-16T01:31:45;10.00;99.90
19031;DHT22;9648;51.130;13.978;2023-05-16T01:34:12;9.90;99.90
19031;DHT22;9648;51.130;13.978;2023-05-16T01:36:43;9.90;99.90
19031;DHT22;9648;51.130;13.978;2023-05-16T01:39:16;9.90;99.90
19031;DHT22;9648;51.130;13.978;2023-05-16T01:41:54;9.90;99.90
19031;DHT22;9648;51.130;13.978;2023-05-16T01:44:30;9.90;99.90
19031;DHT22;9648;51.130;13.978;2023-05-16T01:47:01;9.90;99.90
19031;DHT22;9648;51.130;13.978;2023-05-16T01:49:34;9.90;99.90
19031;DHT22;9648;51.130;13.978;2023-05-16T01:52:06;9.90;99.90
19031;DHT22;9648;51.130;13.978;2023-05-16T01:54:37;9.80;99.90
19031;DHT22;9648;51.130;13.978;2023-05-16T01:57:07;9.80;99.90
19031;DHT22;9648;51.130;13.978;2023-05-16T01:59:35;9.80;99.90
19031;DHT22;9648;51.130;13.978;2023-05-16T02:02:02;9.80;99.90
19031;DHT22;9648;51.130;13.978;2023-05-16T02:04:30;9.80;99.90
19031;DHT22;9648;51.130;13.978;2023-05-16T02:06:57;9.80;99.90
19031;DHT22;9648;51.130;13.978;2023-05-16T02:09:25;9.80;99.90
19031;DHT22;9648;51.130;13.978;2023-05-16T02:11:52;9.80;99.90
19031;DHT22;9648;51.130;13.978;2023-05-16T02:14:20;9.80;99.90
19031;DHT22;9648;51.130;13.978;2023-05-16T02:16:47;9.80;99.90
19031;DHT22;9648;51.130;13.978;2023-05-16T02:19:14;9.80;99.90
19031;DHT22;9648;51.130;13.978;2023-05-16T02:21:40;9.70;99.90
19031;DHT22;9648;51.130;13.978;2023-05-16T02:24:07;9.70;99.90
19031;DHT22;9648;51.130;13.978;2023-05-16T02:26:34;9.70;99.90
19031;DHT22;9648;51.130;13.978;2023-05-16T02:29:01;9.70;99.90
19031;DHT22;9648;51.130;13.978;2023-05-16T02:31:31;9.60;99.90
19031;DHT22;9648;51.130;13.978;2023-05-16T02:33:59;9.60;99.90
19031;DHT22;9648;51.130;13.978;2023-05-16T02:36:26;9.60;99.90
19031;DHT22;9648;51.130;13.978;2023-05-16T02:38:53;9.60;99.90
19031;DHT22;9648;51.130;13.978;2023-05-16T02:41:20;9.50;99.90
19031;DHT22;9648;51.130;13.978;2023-05-16T02:43:47;9.50;99.90
19031;DHT22;9648;51.130;13.978;2023-05-16T02:46:21;9.50;99.90
19031;DHT22;9648;51.130;13.978;2023-05-16T02:48:50;9.50;99.90
19031;DHT22;9648;51.130;13.978;2023-05-16T02:51:17;9.40;99.90
19031;DHT22;9648;51.130;13.978;2023-05-16T02:53:44;9.40;99.90
19031;DHT22;9648;51.130;13.978;2023-05-16T02:56:11;9.40;99.90
19031;DHT22;9648;51.130;13.978;2023-05-16T02:58:38;9.30;99.90
19031;DHT22;9648;51.130;13.978;2023-05-16T03:01:05;9.30;99.90
19031;DHT22;9648;51.130;13.978;2023-05-16T03:03:32;9.30;99.90
19031;DHT22;9648;51.130;13.978;2023-05-16T03:06:01;9.20;99.90
19031;DHT22;9648;51.130;13.978;2023-05-16T03:08:28;9.30;99.90
19031;DHT22;9648;51.130;13.978;2023-05-16T03:10:55;9.20;99.90
19031;DHT22;9648;51.130;13.978;2023-05-16T03:13:22;9.30;99.90
19031;DHT22;9648;51.130;13.978;2023-05-16T03:15:48;9.30;99.90
19031;DHT22;9648;51.130;13.978;2023-05-16T03:18:15;9.30;99.90
19031;DHT22;9648;51.130;13.978;2023-05-16T03:20:42;9.30;99.90
19031;DHT22;9648;51.130;13.978;2023-05-16T03:23:10;9.30;99.90
19031;DHT22;9648;51.130;13.978;2023-05-16T03:25:37;9.40;99.90
19031;DHT22;9648;51.130;13.978;2023-05-16T03:28:05;9.40;99.90
19031;DHT22;9648;51.130;13.978;2023-05-16T03:30:32;9.50;99.90
19031;DHT22;9648;51.130;13.978;2023-05-16T03:32:59;9.50;99.90
19031;DHT22;9648;51.130;13.978;2023-05-16T03:35:26;9.60;99.90
19031;DHT22;9648;51.130;13.978;2023-05-16T03:37:53;9.70;99.90
19031;DHT22;9648;51.130;13.978;2023-05-16T03:40:21;9.80;99.90
19031;DHT22;9648;51.130;13.978;2023-05-16T03:42:48;9.90;99.90
19031;DHT22;9648;51.130;13.978;2023-05-16T03:45:15;9.90;99.90
19031;DHT22;9648;51.130;13.978;2023-05-16T03:47:42;10.00;99.90
19031;DHT22;9648;51.130;13.978;2023-05-16T03:50:09;10.10;99.90
19031;DHT22;9648;51.130;13.978;2023-05-16T03:52:36;10.10;99.90
19031;DHT22;9648;51.130;13.978;2023-05-16T03:55:04;10.10;99.90
19031;DHT22;9648;51.130;13.978;2023-05-16T03:57:32;10.20;99.90
19031;DHT22;9648;51.130;13.978;2023-05-16T03:59:59;10.30;99.90
19031;DHT22;9648;51.130;13.978;2023-05-16T04:02:26;10.30;99.90
19031;DHT22;9648;51.130;13.978;2023-05-16T04:04:53;10.30;99.90
19031;DHT22;9648;51.130;13.978;2023-05-16T04:07:20;10.40;99.90
19031;DHT22;9648;51.130;13.978;2023-05-16T04:09:47;10.40;99.90
19031;DHT22;9648;51.130;13.978;2023-05-16T04:12:14;10.50;99.90
19031;DHT22;9648;51.130;13.978;2023-05-16T04:14:42;10.50;99.90
19031;DHT22;9648;51.130;13.978;2023-05-16T04:17:09;10.60;99.90
19031;DHT22;9648;51.130;13.978;2023-05-16T04:19:37;10.70;99.90
19031;DHT22;9648;51.130;13.978;2023-05-16T04:22:04;10.70;99.90
19031;DHT22;9648;51.130;13.978;2023-05-16T04:24:32;10.70;99.90
19031;DHT22;9648;51.130;13.978;2023-05-16T04:26:59;10.80;99.90
19031;DHT22;9648;51.130;13.978;2023-05-16T04:29:26;10.80;99.90
19031;DHT22;9648;51.130;13.978;2023-05-16T04:31:55;10.90;99.90
19031;DHT22;9648;51.130;13.978;2023-05-16T04:34:21;10.90;99.90
19031;DHT22;9648;51.130;13.978;2023-05-16T04:36:52;10.90;99.90
19031;DHT22;9648;51.130;13.978;2023-05-16T04:39:19;11.00;99.90
19031;DHT22;9648;51.130;13.978;2023-05-16T04:41:46;11.00;99.90
19031;DHT22;9648;51.130;13.978;2023-05-16T04:44:12;11.10;99.90
19031;DHT22;9648;51.130;13.978;2023-05-16T04:46:39;11.10;99.90
19031;DHT22;9648;51.130;13.978;2023-05-16T04:49:07;11.20;99.90
19031;DHT22;9648;51.130;13.978;2023-05-16T04:51:35;11.30;99.90
19031;DHT22;9648;51.130;13.978;2023-05-16T04:54:02;11.30;99.90
19031;DHT22;9648;51.130;13.978;2023-05-16T04:56:29;11.30;99.90
19031;DHT22;9648;51.130;13.978;2023-05-16T04:58:56;11.30;99.90
19031;DHT22;9648;51.130;13.978;2023-05-16T05:01:23;11.30;99.90
19031;DHT22;9648;51.130;13.978;2023-05-16T05:03:50;11.30;99.90
19031;DHT22;9648;51.130;13.978;2023-05-16T05:06:18;11.30;99.90
19031;DHT22;9648;51.130;13.978;2023-05-16T05:08:44;11.40;99.90
19031;DHT22;9648;51.130;13.978;2023-05-16T05:11:11;11.40;99.90
19031;DHT22;9648;51.130;13.978;2023-05-16T05:13:38;11.40;99.90
19031;DHT22;9648;51.130;13.978;2023-05-16T05:16:05;11.40;99.90
19031;DHT22;9648;51.130;13.978;2023-05-16T05:18:32;11.40;99.90
19031;DHT22;9648;51.130;13.978;2023-05-16T05:20:59;11.30;99.90
19031;DHT22;9648;51.130;13.978;2023-05-16T05:23:28;11.30;99.90
19031;DHT22;9648;51.130;13.978;2023-05-16T05:25:54;11.20;99.90
19031;DHT22;9648;51.130;13.978;2023-05-16T05:28:21;11.20;99.90
19031;DHT22;9648;51.130;13.978;2023-05-16T05:30:48;11.20;99.90
19031;DHT22;9648;51.130;13.978;2023-05-16T05:33:16;11.10;99.90
19031;DHT22;9648;51.130;13.978;2023-05-16T05:35:43;11.10;99.90
19031;DHT22;9648;51.130;13.978;2023-05-16T05:38:10;11.10;99.90
19031;DHT22;9648;51.130;13.978;2023-05-16T05:40:38;11.10;99.90
19031;DHT22;9648;51.130;13.978;2023-05-16T05:43:05;11.10;99.90
19031;DHT22;9648;51.130;13.978;2023-05-16T05:45:32;11.00;99.90
19031;DHT22;9648;51.130;13.978;2023-05-16T05:47:59;11.00;99.90
19031;DHT22;9648;51.130;13.978;2023-05-16T05:50:25;10.90;99.90
19031;DHT22;9648;51.130;13.978;2023-05-16T05:52:53;10.90;99.90
19031;DHT22;9648;51.130;13.978;2023-05-16T05:55:20;10.90;99.90
19031;DHT22;9648;51.130;13.978;2023-05-16T05:57:48;10.90;99.90
19031;DHT22;9648;51.130;13.978;2023-05-16T06:00:15;10.80;99.90
19031;DHT22;9648;51.130;13.978;2023-05-16T06:02:42;10.80;99.90
19031;DHT22;9648;51.130;13.978;2023-05-16T06:05:09;10.80;99.90
19031;DHT22;9648;51.130;13.978;2023-05-16T06:07:36;10.80;99.90
19031;DHT22;9648;51.130;13.978;2023-05-16T06:10:04;10.90;99.90
19031;DHT22;9648;51.130;13.978;2023-05-16T06:12:32;10.90;99.90
19031;DHT22;9648;51.130;13.978;2023-05-16T06:15:01;10.80;99.90
19031;DHT22;9648;51.130;13.978;2023-05-16T06:17:27;10.80;99.90
19031;DHT22;9648;51.130;13.978;2023-05-16T06:19:54;10.80;99.90
19031;DHT22;9648;51.130;13.978;2023-05-16T06:22:21;10.70;99.90
19031;DHT22;9648;51.130;13.978;2023-05-16T06:24:48;10.60;99.90
19031;DHT22;9648;51.130;13.978;2023-05-16T06:27:15;10.50;99.90
19031;DHT22;9648;51.130;13.978;2023-05-16T06:29:42;10.50;99.90
19031;DHT22;9648;51.130;13.978;2023-05-16T06:32:10;10.40;99.90
19031;DHT22;9648;51.130;13.978;2023-05-16T06:34:37;10.30;99.90
19031;DHT22;9648;51.130;13.978;2023-05-16T06:37:04;10.30;99.90
19031;DHT22;9648;51.130;13.978;2023-05-16T06:39:31;10.30;99.90
19031;DHT22;9648;51.130;13.978;2023-05-16T06:42:02;10.20;99.90
19031;DHT22;9648;51.130;13.978;2023-05-16T06:44:28;10.20;99.90
19031;DHT22;9648;51.130;13.978;2023-05-16T06:46:55;10.20;99.90
19031;DHT22;9648;51.130;13.978;2023-05-16T06:49:24;10.20;99.90
19031;DHT22;9648;51.130;13.978;2023-05-16T06:51:51;10.20;99.90
19031;DHT22;9648;51.130;13.978;2023-05-16T06:54:18;10.30;99.90
19031;DHT22;9648;51.130;13.978;2023-05-16T06:56:44;10.20;99.90
19031;DHT22;9648;51.130;13.978;2023-05-16T06:59:11;10.20;99.90
19031;DHT22;9648;51.130;13.978;2023-05-16T07:01:38;10.30;99.90
19031;DHT22;9648;51.130;13.978;2023-05-16T07:04:05;10.30;99.90
19031;DHT22;9648;51.130;13.978;2023-05-16T07:06:33;10.30;99.90
19031;DHT22;9648;51.130;13.978;2023-05-16T07:09:01;10.30;99.90
19031;DHT22;9648;51.130;13.978;2023-05-16T07:11:28;10.30;99.90
19031;DHT22;9648;51.130;13.978;2023-05-16T07:13:54;10.40;99.90
19031;DHT22;9648;51.130;13.978;2023-05-16T07:16:21;10.40;99.90
19031;DHT22;9648;51.130;13.978;2023-05-16T07:18:48;10.50;99.90
19031;DHT22;9648;51.130;13.978;2023-05-16T07:21:16;10.50;99.90
19031;DHT22;9648;51.130;13.978;2023-05-16T07:23:44;10.50;99.90
19031;DHT22;9648;51.130;13.978;2023-05-16T07:26:11;10.60;99.90
19031;DHT22;9648;51.130;13.978;2023-05-16T07:28:38;10.50;99.90
19031;DHT22;9648;51.130;13.978;2023-05-16T07:31:05;10.50;99.90
19031;DHT22;9648;51.130;13.978;2023-05-16T07:33:32;10.50;99.90
19031;DHT22;9648;51.130;13.978;2023-05-16T07:35:59;10.50;99.90
19031;DHT22;9648;51.130;13.978;2023-05-16T07:38:26;10.40;99.90
19031;DHT22;9648;51.130;13.978;2023-05-16T07:40:54;10.40;99.90
19031;DHT22;9648;51.130;13.978;2023-05-16T07:43:21;10.30;99.90
19031;DHT22;9648;51.130;13.978;2023-05-16T07:45:48;10.20;99.90
19031;DHT22;9648;51.130;13.978;2023-05-16T07:48:15;10.10;99.90
19031;DHT22;9648;51.130;13.978;2023-05-16T07:50:42;10.00;99.90
19031;DHT22;9648;51.130;13.978;2023-05-16T07:53:09;10.00;99.90
19031;DHT22;9648;51.130;13.978;2023-05-16T07:55:36;10.00;99.90
19031;DHT22;9648;51.130;13.978;2023-05-16T07:58:04;10.00;99.90
19031;DHT22;9648;51.130;13.978;2023-05-16T08:00:31;10.00;99.90
19031;DHT22;9648;51.130;13.978;2023-05-16T08:02:58;10.00;99.90
19031;DHT22;9648;51.130;13.978;2023-05-16T08:05:25;9.90;99.90
19031;DHT22;9648;51.130;13.978;2023-05-16T08:07:52;9.90;99.90
19031;DHT22;9648;51.130;13.978;2023-05-16T08:10:18;9.90;99.90
19031;DHT22;9648;51.130;13.978;2023-05-16T08:12:45;9.80;99.90
19031;DHT22;9648;51.130;13.978;2023-05-16T08:15:14;9.80;99.90
19031;DHT22;9648;51.130;13.978;2023-05-16T08:17:41;9.90;99.90
19031;DHT22;9648;51.130;13.978;2023-05-16T08:20:08;9.90;99.90
19031;DHT22;9648;51.130;13.978;2023-05-16T08:22:35;9.90;99.90
19031;DHT22;9648;51.130;13.978;2023-05-16T08:25:02;10.00;99.90
19031;DHT22;9648;51.130;13.978;2023-05-16T08:27:29;9.90;99.90
19031;DHT22;9648;51.130;13.978;2023-05-16T08:29:55;10.00;99.90
19031;DHT22;9648;51.130;13.978;2023-05-16T08:32:24;10.00;99.90
19031;DHT22;9648;51.130;13.978;2023-05-16T08:34:51;10.00;99.90
19031;DHT22;9648;51.130;13.978;2023-05-16T08:37:17;10.00;99.90
19031;DHT22;9648;51.130;13.978;2023-05-16T08:39:44;10.00;99.90
19031;DHT22;9648;51.130;13.978;2023-05-16T08:42:11;10.10;99.90
19031;DHT22;9648;51.130;13.978;2023-05-16T08:44:38;10.00;99.90
19031;DHT22;9648;51.130;13.978;2023-05-16T08:47:10;10.00;99.90
19031;DHT22;9648;51.130;13.978;2023-05-16T08:49:40;10.10;99.90
19031;DHT22;9648;51.130;13.978;2023-05-16T08:52:08;10.10;99.90
19031;DHT22;9648;51.130;13.978;2023-05-16T08:54:36;10.10;99.90
19031;DHT22;9648;51.130;13.978;2023-05-16T08:57:04;10.00;99.90
19031;DHT22;9648;51.130;13.978;2023-05-16T08:59:31;10.00;99.90
19031;DHT22;9648;51.130;13.978;2023-05-16T09:01:58;10.00;99.90
19031;DHT22;9648;51.130;13.978;2023-05-16T09:04:25;10.00;99.90
19031;DHT22;9648;51.130;13.978;2023-05-16T09:06:53;10.00;99.90
19031;DHT22;9648;51.130;13.978;2023-05-16T09:09:20;10.00;99.90
19031;DHT22;9648;51.130;13.978;2023-05-16T09:11:47;9.90;99.90
19031;DHT22;9648;51.130;13.978;2023-05-16T09:14:14;9.90;99.90
19031;DHT22;9648;51.130;13.978;2023-05-16T09:16:41;9.80;99.90
19031;DHT22;9648;51.130;13.978;2023-05-16T09:19:11;9.80;99.90
19031;DHT22;9648;51.130;13.978;2023-05-16T09:21:39;9.80;99.90
19031;DHT22;9648;51.130;13.978;2023-05-16T09:24:08;9.80;99.90
19031;DHT22;9648;51.130;13.978;2023-05-16T09:26:36;9.80;99.90
19031;DHT22;9648;51.130;13.978;2023-05-16T09:29:09;9.80;99.90
19031;DHT22;9648;51.130;13.978;2023-05-16T09:31:36;9.80;99.90
19031;DHT22;9648;51.130;13.978;2023-05-16T09:34:03;9.80;99.90
19031;DHT22;9648;51.130;13.978;2023-05-16T09:36:32;9.80;99.90
19031;DHT22;9648;51.130;13.978;2023-05-16T09:39:00;9.80;99.90
19031;DHT22;9648;51.130;13.978;2023-05-16T09:41:28;9.90;99.90
19031;DHT22;9648;51.130;13.978;2023-05-16T09:43:58;9.90;99.90
19031;DHT22;9648;51.130;13.978;2023-05-16T09:46:25;10.00;99.90
19031;DHT22;9648;51.130;13.978;2023-05-16T09:48:54;10.10;99.90
19031;DHT22;9648;51.130;13.978;2023-05-16T09:51:21;10.10;99.90
19031;DHT22;9648;51.130;13.978;2023-05-16T09:53:48;10.10;99.90
19031;DHT22;9648;51.130;13.978;2023-05-16T09:56:15;10.00;99.90
19031;DHT22;9648;51.130;13.978;2023-05-16T09:58:45;10.10;99.90
19031;DHT22;9648;51.130;13.978;2023-05-16T10:01:12;10.00;99.90
19031;DHT22;9648;51.130;13.978;2023-05-16T10:03:40;10.00;99.90
19031;DHT22;9648;51.130;13.978;2023-05-16T10:06:08;10.10;99.90
19031;DHT22;9648;51.130;13.978;2023-05-16T10:08:35;10.10;99.90
19031;DHT22;9648;51.130;13.978;2023-05-16T10:11:03;10.10;99.90
19031;DHT22;9648;51.130;13.978;2023-05-16T10:13:33;10.20;99.90
19031;DHT22;9648;51.130;13.978;2023-05-16T10:16:07;10.20;99.90
19031;DHT22;9648;51.130;13.978;2023-05-16T10:18:37;10.20;99.90
19031;DHT22;9648;51.130;13.978;2023-05-16T10:21:06;10.20;99.90
19031;DHT22;9648;51.130;13.978;2023-05-16T10:23:33;10.20;99.90
19031;DHT22;9648;51.130;13.978;2023-05-16T10:26:02;10.20;99.90
19031;DHT22;9648;51.130;13.978;2023-05-16T10:28:30;10.30;99.90
19031;DHT22;9648;51.130;13.978;2023-05-16T10:30:58;10.30;99.90
19031;DHT22;9648;51.130;13.978;2023-05-16T10:33:27;10.30;99.90
19031;DHT22;9648;51.130;13.978;2023-05-16T10:35:54;10.30;99.90
19031;DHT22;9648;51.130;13.978;2023-05-16T10:38:22;10.40;99.90
19031;DHT22;9648;51.130;13.978;2023-05-16T10:40:50;10.40;99.90
19031;DHT22;9648;51.130;13.978;2023-05-16T10:43:24;10.40;99.90
19031;DHT22;9648;51.130;13.978;2023-05-16T10:45:55;10.40;99.90
19031;DHT22;9648;51.130;13.978;2023-05-16T10:48:31;10.40;99.90
19031;DHT22;9648;51.130;13.978;2023-05-16T10:50:58;10.40;99.90
19031;DHT22;9648;51.130;13.978;2023-05-16T10:53:31;10.40;99.90
19031;DHT22;9648;51.130;13.978;2023-05-16T10:56:06;10.30;99.90
19031;DHT22;9648;51.130;13.978;2023-05-16T10:58:40;10.30;99.90
19031;DHT22;9648;51.130;13.978;2023-05-16T11:01:14;10.30;99.90
19031;DHT22;9648;51.130;13.978;2023-05-16T11:04:01;10.30;99.90
19031;DHT22;9648;51.130;13.978;2023-05-16T11:06:30;10.40;99.90
19031;DHT22;9648;51.130;13.978;2023-05-16T11:09:04;10.50;99.90
19031;DHT22;9648;51.130;13.978;2023-05-16T11:11:42;10.50;99.90
19031;DHT22;9648;51.130;13.978;2023-05-16T11:14:19;10.60;99.90
19031;DHT22;9648;51.130;13.978;2023-05-16T11:16:48;10.60;99.90
19031;DHT22;9648;51.130;13.978;2023-05-16T11:19:31;10.60;99.90
19031;DHT22;9648;51.130;13.978;2023-05-16T11:22:23;10.70;99.90
19031;DHT22;9648;51.130;13.978;2023-05-16T11:24:55;10.70;99.90
19031;DHT22;9648;51.130;13.978;2023-05-16T11:27:25;10.80;99.90
19031;DHT22;9648;51.130;13.978;2023-05-16T11:29:57;10.80;99.90
19031;DHT22;9648;51.130;13.978;2023-05-16T11:32:24;10.80;99.90
19031;DHT22;9648;51.130;13.978;2023-05-16T11:34:52;10.80;99.90
19031;DHT22;9648;51.130;13.978;2023-05-16T11:37:19;10.80;99.90
19031;DHT22;9648;51.130;13.978;2023-05-16T11:39:47;10.90;99.90
19031;DHT22;9648;51.130;13.978;2023-05-16T11:42:14;11.00;99.90
19031;DHT22;9648;51.130;13.978;2023-05-16T11:44:40;11.20;99.90
19031;DHT22;9648;51.130;13.978;2023-05-16T11:47:07;11.30;99.90
19031;DHT22;9648;51.130;13.978;2023-05-16T11:49:35;11.40;99.90
19031;DHT22;9648;51.130;13.978;2023-05-16T11:52:03;11.50;99.90
19031;DHT22;9648;51.130;13.978;2023-05-16T11:54:31;11.40;99.90
19031;DHT22;9648;51.130;13.978;2023-05-16T11:56:59;11.40;99.90
19031;DHT22;9648;51.130;13.978;2023-05-16T11:59:26;11.40;99.90
19031;DHT22;9648;51.130;13.978;2023-05-16T12:01:53;11.40;99.90
19031;DHT22;9648;51.130;13.978;2023-05-16T12:04:20;11.30;99.90
19031;DHT22;9648;51.130;13.978;2023-05-16T12:06:58;11.30;99.90
19031;DHT22;9648;51.130;13.978;2023-05-16T12:09:27;11.30;99.90
19031;DHT22;9648;51.130;13.978;2023-05-16T12:11:54;11.30;99.90
19031;DHT22;9648;51.130;13.978;2023-05-16T12:14:21;11.30;99.90
19031;DHT22;9648;51.130;13.978;2023-05-16T12:16:51;11.30;99.90
19031;DHT22;9648;51.130;13.978;2023-05-16T12:19:18;11.30;99.90
19031;DHT22;9648;51.130;13.978;2023-05-16T12:21:45;11.20;99.90
19031;DHT22;9648;51.130;13.978;2023-05-16T12:24:12;11.20;99.90
19031;DHT22;9648;51.130;13.978;2023-05-16T12:26:40;11.20;99.90
19031;DHT22;9648;51.130;13.978;2023-05-16T12:29:09;11.20;99.90
19031;DHT22;9648;51.130;13.978;2023-05-16T12:31:37;11.10;99.90
19031;DHT22;9648;51.130;13.978;2023-05-16T12:34:14;11.20;99.90
19031;DHT22;9648;51.130;13.978;2023-05-16T12:36:41;11.30;99.90
19031;DHT22;9648;51.130;13.978;2023-05-16T12:39:11;11.50;99.90
19031;DHT22;9648;51.130;13.978;2023-05-16T12:41:41;11.70;99.90
19031;DHT22;9648;51.130;13.978;2023-05-16T12:44:12;11.90;99.90
19031;DHT22;9648;51.130;13.978;2023-05-16T12:46:42;12.00;99.90
19031;DHT22;9648;51.130;13.978;2023-05-16T12:49:10;12.30;99.90
19031;DHT22;9648;51.130;13.978;2023-05-16T12:51:38;12.70;99.90
19031;DHT22;9648;51.130;13.978;2023-05-16T12:54:09;13.10;99.90
19031;DHT22;9648;51.130;13.978;2023-05-16T12:56:37;13.50;99.90
19031;DHT22;9648;51.130;13.978;2023-05-16T12:59:06;13.80;99.90
19031;DHT22;9648;51.130;13.978;2023-05-16T13:01:33;13.90;99.90
19031;DHT22;9648;51.130;13.978;2023-05-16T13:04:00;14.00;99.90
19031;DHT22;9648;51.130;13.978;2023-05-16T13:06:27;13.90;99.90
19031;DHT22;9648;51.130;13.978;2023-05-16T13:08:54;13.90;99.90
19031;DHT22;9648;51.130;13.978;2023-05-16T13:11:22;13.80;99.90
19031;DHT22;9648;51.130;13.978;2023-05-16T13:13:49;13.60;99.90
19031;DHT22;9648;51.130;13.978;2023-05-16T13:16:17;13.40;99.90
19031;DHT22;9648;51.130;13.978;2023-05-16T13:18:44;13.20;99.90
19031;DHT22;9648;51.130;13.978;2023-05-16T13:21:10;13.10;99.90
19031;DHT22;9648;51.130;13.978;2023-05-16T13:23:37;13.10;99.90
19031;DHT22;9648;51.130;13.978;2023-05-16T13:26:04;13.00;99.90
19031;DHT22;9648;51.130;13.978;2023-05-16T13:28:31;12.80;99.90
19031;DHT22;9648;51.130;13.978;2023-05-16T13:30:58;12.70;99.90
19031;DHT22;9648;51.130;13.978;2023-05-16T13:33:27;12.60;99.90
19031;DHT22;9648;51.130;13.978;2023-05-16T13:35:53;12.50;99.90
19031;DHT22;9648;51.130;13.978;2023-05-16T13:38:21;12.40;99.90
19031;DHT22;9648;51.130;13.978;2023-05-16T13:40:47;12.40;99.90
19031;DHT22;9648;51.130;13.978;2023-05-16T13:43:14;12.40;99.90
19031;DHT22;9648;51.130;13.978;2023-05-16T13:45:41;12.40;99.90
19031;DHT22;9648;51.130;13.978;2023-05-16T13:48:09;12.40;99.90
19031;DHT22;9648;51.130;13.978;2023-05-16T13:50:37;12.40;99.90
19031;DHT22;9648;51.130;13.978;2023-05-16T13:53:05;12.40;99.90
19031;DHT22;9648;51.130;13.978;2023-05-16T13:55:31;12.50;99.90
19031;DHT22;9648;51.130;13.978;2023-05-16T13:57:58;12.50;99.90
19031;DHT22;9648;51.130;13.978;2023-05-16T14:00:25;12.70;99.90
19031;DHT22;9648;51.130;13.978;2023-05-16T14:02:52;12.80;99.90
19031;DHT22;9648;51.130;13.978;2023-05-16T14:05:19;13.00;99.90
19031;DHT22;9648;51.130;13.978;2023-05-16T14:07:47;13.20;99.90
19031;DHT22;9648;51.130;13.978;2023-05-16T14:10:14;13.20;99.90
19031;DHT22;9648;51.130;13.978;2023-05-16T14:12:41;13.30;99.90
19031;DHT22;9648;51.130;13.978;2023-05-16T14:15:08;13.10;99.90
19031;DHT22;9648;51.130;13.978;2023-05-16T14:17:35;13.00;99.90
19031;DHT22;9648;51.130;13.978;2023-05-16T14:20:03;12.90;99.90
19031;DHT22;9648;51.130;13.978;2023-05-16T14:22:33;12.80;99.90
19031;DHT22;9648;51.130;13.978;2023-05-16T14:25:01;12.60;99.90
19031;DHT22;9648;51.130;13.978;2023-05-16T14:27:29;12.50;99.90
19031;DHT22;9648;51.130;13.978;2023-05-16T14:29:55;12.50;99.90
19031;DHT22;9648;51.130;13.978;2023-05-16T14:32:23;12.40;99.90
19031;DHT22;9648;51.130;13.978;2023-05-16T14:34:50;12.30;99.90
19031;DHT22;9648;51.130;13.978;2023-05-16T14:37:17;12.10;99.90
19031;DHT22;9648;51.130;13.978;2023-05-16T14:39:45;12.10;99.90
19031;DHT22;9648;51.130;13.978;2023-05-16T14:42:15;12.10;99.90
19031;DHT22;9648;51.130;13.978;2023-05-16T14:44:43;12.00;99.90
19031;DHT22;9648;51.130;13.978;2023-05-16T14:47:10;12.00;99.90
19031;DHT22;9648;51.130;13.978;2023-05-16T14:49:37;12.00;99.90
19031;DHT22;9648;51.130;13.978;2023-05-16T14:52:05;11.90;99.90
19031;DHT22;9648;51.130;13.978;2023-05-16T14:54:32;11.80;99.90
19031;DHT22;9648;51.130;13.978;2023-05-16T14:56:58;11.70;99.90
19031;DHT22;9648;51.130;13.978;2023-05-16T14:59:27;11.70;99.90
19031;DHT22;9648;51.130;13.978;2023-05-16T15:01:54;11.70;99.90
19031;DHT22;9648;51.130;13.978;2023-05-16T15:04:21;11.60;99.90
19031;DHT22;9648;51.130;13.978;2023-05-16T15:06:48;11.60;99.90
19031;DHT22;9648;51.130;13.978;2023-05-16T15:09:15;11.60;99.90
19031;DHT22;9648;51.130;13.978;2023-05-16T15:11:42;11.60;99.90
19031;DHT22;9648;51.130;13.978;2023-05-16T15:14:08;11.60;99.90
19031;DHT22;9648;51.130;13.978;2023-05-16T15:16:37;11.50;99.90
19031;DHT22;9648;51.130;13.978;2023-05-16T15:19:03;11.50;99.90
19031;DHT22;9648;51.130;13.978;2023-05-16T15:21:30;11.50;99.90
19031;DHT22;9648;51.130;13.978;2023-05-16T15:23:57;11.50;99.90
19031;DHT22;9648;51.130;13.978;2023-05-16T15:26:24;11.50;99.90
19031;DHT22;9648;51.130;13.978;2023-05-16T15:28:51;11.50;99.90
19031;DHT22;9648;51.130;13.978;2023-05-16T15:31:19;11.50;99.90
19031;DHT22;9648;51.130;13.978;2023-05-16T15:33:48;11.50;99.90
19031;DHT22;9648;51.130;13.978;2023-05-16T15:36:15;11.50;99.90
19031;DHT22;9648;51.130;13.978;2023-05-16T15:38:42;11.50;99.90